Somers, Wisconsin
Current Conditions -  °F | °C
As of 5:10 AM on Wednesday 26 Nov 2014 (Local Time) from KENW Reporting Station
Haze Haze  
Wind Chill:   Ceiling: 1100
Heat Index: 12°   Visibility: 4mi
Dew Point:   Wind: 5mph
Humidity: 88%   Direction: 330°NNW
Pressure: 30.15"   Gusts: NA
Location:  42.64°N, 87.91°W
Report Text: KENW 261110Z AUTO 33004KT 4SM BR BKN011 M11/M13 A3015 RMK AO2 T11111128
Loading
Personal Weather Stations






























Interactive Weather Map New forecast layout! Learn more

10-Day Weather Forecast

Advertisements
Track Severe Weather on mobile